Hermann_schoening — A8TM4 — position and weather

sailwx.info

Track history (hours):
 
Tides and Currents Weather Stations Pressure Air Temp Water Temp Dewpoint Dewpoint Depression Visibility Wind Speed Wind Dir Waves Ship Positions

Hermann_schoening

Last reported at 2015-Apr-26 10:29 UTC. Time now 2015-Apr-26 11:30 UTC.
Position N 36°08' W 005°18'.

Length 190 m; draft 6.2 m.

Type: Cargo ship. MMSI: 636091839.

Date/timePositionNaut miles runAvg speedWind from/ knotsBaromVisibWave heightAir tempDewpointWater temp
2015-Apr-26 10:29N 36°08' W 005°18'0 0.0
2015-Apr-26 09:32N 36°08' W 005°18'0 0.0
2015-Apr-26 08:26N 36°08' W 005°18'0 0.0
2015-Apr-26 07:32N 36°08' W 005°18'0 0.0
2015-Apr-26 06:32N 36°08' W 005°18'0 0.0
2015-Apr-26 05:29N 36°08' W 005°18'0 0.1
2015-Apr-26 04:29N 36°08' W 005°18'0 0.2
2015-Apr-26 03:32N 36°08' W 005°18'0 0.1
2015-Apr-26 02:32N 36°08' W 005°18'0 0.0
2015-Apr-26 01:17N 36°08' W 005°18'0 0.1
2015-Apr-26 00:32N 36°08' W 005°18'0 0.1
2015-Apr-25 23:20N 36°08' W 005°18'0 0.0
2015-Apr-25 22:11N 36°08' W 005°18'0 0.0
2015-Apr-25 21:20N 36°08' W 005°18'0 0.0
2015-Apr-25 20:32N 36°08' W 005°18'0 0.0
2015-Apr-25 19:32N 36°08' W 005°18'0 0.0
2015-Apr-25 18:29N 36°08' W 005°18'0 0.0
2015-Apr-25 17:32N 36°08' W 005°18'0 0.0
2015-Apr-25 16:32N 36°08' W 005°18'0 0.0
2015-Apr-25 15:26N 36°08' W 005°18'0 0.1
2015-Apr-25 14:14N 36°08' W 005°18'0 0.0
2015-Apr-25 13:23N 36°08' W 005°18'0 0.1
2015-Apr-25 12:26N 36°08' W 005°18'0 0.0
2015-Apr-25 11:29N 36°08' W 005°18'0 0.1
2015-Apr-25 10:29N 36°08' W 005°18'0 0.1
2015-Apr-25 09:29N 36°08' W 005°18'0 0.0
2015-Apr-25 08:32N 36°08' W 005°18'0 0.0
2015-Apr-25 07:32N 36°08' W 005°18'0 0.0
2015-Apr-25 04:32N 36°08' W 005°18'0 0.0
2015-Apr-25 03:14N 36°08' W 005°18'0 0.0
2015-Apr-25 02:32N 36°08' W 005°18'0 0.0
2015-Apr-25 01:26N 36°08' W 005°18'0 0.0
2015-Apr-24 23:32N 36°08' W 005°18'0 0.1
2015-Apr-24 21:32N 36°08' W 005°18'0 0.0
2015-Apr-24 20:32N 36°08' W 005°18'0 0.0
2015-Apr-24 19:20N 36°08' W 005°18'0 0.0
2015-Apr-24 18:29N 36°08' W 005°18'0 0.0
2015-Apr-24 17:32N 36°08' W 005°18'0 0.0
2015-Apr-24 16:32N 36°08' W 005°18'0 0.1
2015-Apr-24 15:32N 36°08' W 005°18'0 0.0
2015-Apr-24 14:32N 36°08' W 005°18'0 0.1
2015-Apr-24 13:32N 36°08' W 005°18'0 0.2
2015-Apr-24 12:20N 36°08' W 005°18'0 0.0
2015-Apr-24 11:14N 36°08' W 005°18'0 0.0
2015-Apr-24 08:32N 36°08' W 005°18'0 0.0
2015-Apr-24 07:29N 36°08' W 005°18'0 0.0
2015-Apr-24 06:29N 36°08' W 005°18'0 0.0
2015-Apr-24 05:23N 36°08' W 005°18'0 0.1
2015-Apr-24 04:29N 36°08' W 005°18'0 0.1
2015-Apr-24 03:32N 36°08' W 005°18'0 0.1
2015-Apr-24 02:29N 36°08' W 005°18'0 0.0
2015-Apr-24 01:32N 36°08' W 005°18'0 0.0
2015-Apr-24 00:32N 36°08' W 005°18'0 0.0
2015-Apr-23 23:32N 36°08' W 005°18'0 0.1
2015-Apr-23 22:32N 36°08' W 005°18'0 0.1
2015-Apr-23 21:32N 36°08' W 005°18'0 0.0
2015-Apr-23 20:32N 36°08' W 005°18'0 0.0
2015-Apr-23 19:20N 36°08' W 005°18'0 0.1
2015-Apr-23 18:29N 36°08' W 005°18'0 0.1
2015-Apr-23 17:14N 36°08' W 005°18'0 0.1
2015-Apr-23 15:26N 36°08' W 005°18'0 0.0
2015-Apr-23 14:14N 36°08' W 005°18'0 0.0
2015-Apr-23 13:08N 36°08' W 005°18'0 0.1
2015-Apr-23 12:32N 36°08' W 005°18'0 0.0
2015-Apr-23 11:34N 36°08' W 005°18'4 3.4
2015-Apr-23 10:28N 36°07' W 005°23'1 0.2
2015-Apr-23 08:04N 36°07' W 005°22'2 3.6
2015-Apr-23 07:34N 36°05' W 005°21'3 2.5
2015-Apr-23 06:33N 36°06' W 005°18'2 1.7
2015-Apr-23 05:30N 36°08' W 005°18'0 0.0
2015-Apr-23 04:33N 36°08' W 005°18'0 0.0
2015-Apr-23 03:33N 36°08' W 005°18'0 0.1
2015-Apr-23 02:24N 36°08' W 005°18'0 0.0
2015-Apr-23 01:33N 36°08' W 005°18'0 0.0
2015-Apr-23 00:18N 36°08' W 005°18'0 0.0
2015-Apr-22 23:27N 36°08' W 005°18'0 0.0
2015-Apr-22 22:33N 36°08' W 005°18'0 0.1
2015-Apr-22 21:12N 36°08' W 005°18'0 0.2
2015-Apr-22 20:33N 36°08' W 005°18'0 0.0
2015-Apr-22 19:21N 36°08' W 005°18'0 0.0
2015-Apr-22 18:33N 36°08' W 005°18'0 0.0
2015-Apr-22 17:33N 36°08' W 005°18'0 0.0
2015-Apr-22 16:33N 36°08' W 005°18'0 0.2
2015-Apr-22 15:15N 36°08' W 005°18'0 0.0
2015-Apr-22 13:24N 36°08' W 005°18'0 0.0
2015-Apr-22 12:27N 36°08' W 005°18'0 0.0
2015-Apr-22 11:30N 36°08' W 005°18'0 0.0
2015-Apr-22 10:33N 36°08' W 005°18'0 0.0
2015-Apr-22 09:33N 36°08' W 005°18'0 0.0
2015-Apr-22 08:33N 36°08' W 005°18'0 0.0
2015-Apr-22 07:33N 36°08' W 005°18'0 0.0
2015-Apr-22 06:21N 36°08' W 005°18'0 0.0
2015-Apr-22 05:27N 36°08' W 005°18'0 0.0
2015-Apr-22 04:33N 36°08' W 005°18'0 0.0
2015-Apr-22 03:33N 36°08' W 005°18'0 0.0
2015-Apr-22 01:21N 36°08' W 005°18'0 0.0
2015-Apr-22 00:30N 36°08' W 005°18'0 0.0
2015-Apr-21 23:33N 36°08' W 005°18'0 0.0
2015-Apr-21 22:33N 36°08' W 005°18'0 0.0
2015-Apr-21 21:27N 36°08' W 005°18'0 0.0
2015-Apr-21 20:30N 36°08' W 005°18'0 0.0
2015-Apr-21 19:33N 36°08' W 005°18'0 0.0
2015-Apr-21 18:27N 36°08' W 005°18'0 0.0
2015-Apr-21 17:24N 36°08' W 005°18'0 0.0
2015-Apr-21 16:18N 36°08' W 005°18'0 0.0
2015-Apr-21 15:18N 36°08' W 005°18'0 0.0
2015-Apr-21 14:27N 36°08' W 005°18'0 0.0
2015-Apr-21 13:21N 36°08' W 005°18'0 0.1
2015-Apr-21 12:33N 36°08' W 005°18'4 4.3
2015-Apr-21 11:33N 36°05' W 005°22'2 2.1
2015-Apr-21 10:32N 36°08' W 005°22'0 0.1
2015-Apr-21 09:20N 36°08' W 005°22'0 0.0
2015-Apr-21 08:32N 36°08' W 005°22'2 1.9
2015-Apr-21 07:33N 36°06' W 005°22'4 4.1
2015-Apr-21 06:33N 36°08' W 005°17'1 0.8
2015-Apr-21 05:31N 36°08' W 005°18'0 0.1
2015-Apr-21 04:28N 36°08' W 005°18'0 0.0
2015-Apr-21 03:31N 36°08' W 005°18'0 0.0
2015-Apr-21 02:28N 36°08' W 005°18'0 0.0
2015-Apr-21 01:31N 36°08' W 005°18'0 0.0
2015-Apr-21 00:25N 36°08' W 005°18'0 0.0
2015-Apr-20 23:31N 36°08' W 005°18'0 0.0
2015-Apr-20 22:22N 36°08' W 005°18'0 0.0
2015-Apr-20 21:10N 36°08' W 005°18'0 0.0
2015-Apr-20 20:22N 36°08' W 005°18'0 0.0
2015-Apr-20 19:22N 36°08' W 005°18'0 0.0
2015-Apr-20 18:28N 36°08' W 005°18'0 0.1
2015-Apr-20 17:31N 36°08' W 005°18'0 0.0
2015-Apr-20 16:31N 36°08' W 005°18'0 0.0
2015-Apr-20 15:22N 36°08' W 005°18'0 0.0
2015-Apr-20 14:22N 36°08' W 005°18'0 0.1
2015-Apr-20 13:31N 36°08' W 005°18'0 0.0
2015-Apr-20 12:28N 36°08' W 005°18'0 0.1
2015-Apr-20 11:22N 36°08' W 005°18'0 0.0
2015-Apr-20 10:22N 36°08' W 005°18'0 0.0
2015-Apr-20 08:28N 36°08' W 005°18'0 0.0
2015-Apr-20 07:28N 36°08' W 005°18'0 0.2
2015-Apr-20 06:10N 36°08' W 005°18'0 0.2
2015-Apr-20 05:28N 36°08' W 005°18'0 0.1
2015-Apr-20 04:25N 36°08' W 005°18'0 0.1
2015-Apr-20 03:31N 36°08' W 005°18'0 0.0
2015-Apr-20 02:28N 36°08' W 005°18'0 0.0
2015-Apr-19 23:22N 36°08' W 005°18'0 0.1
2015-Apr-19 22:31N 36°08' W 005°18'0 0.2
2015-Apr-19 21:28N 36°08' W 005°18'3 3.5
2015-Apr-19 20:33N 36°08' W 005°22'0 0.1
2015-Apr-19 17:26N 36°08' W 005°22'0 0.1
2015-Apr-19 16:29N 36°08' W 005°22'0 0.1
2015-Apr-19 15:23N 36°08' W 005°22'0 0.0
2015-Apr-19 14:32N 36°08' W 005°22'0 0.1
2015-Apr-19 13:32N 36°08' W 005°22'0 0.0
2015-Apr-19 12:32N 36°08' W 005°22'0 0.2
2015-Apr-19 11:32N 36°08' W 005°22'0 0.2
2015-Apr-19 10:32N 36°08' W 005°22'0 0.0
2015-Apr-19 06:08N 36°08' W 005°22'0 0.0
2015-Apr-19 05:32N 36°08' W 005°22'0 0.0
2015-Apr-19 04:26N 36°08' W 005°22'0 0.0
2015-Apr-19 01:20N 36°08' W 005°22'0 0.1
2015-Apr-19 00:26N 36°08' W 005°22'0 0.1
2015-Apr-18 23:32N 36°08' W 005°22'0 0.1
2015-Apr-18 21:29N 36°07' W 005°22'0 0.0
2015-Apr-18 18:32N 36°08' W 005°22'0 0.0
2015-Apr-18 16:20N 36°08' W 005°22'0 0.1
2015-Apr-18 15:23N 36°08' W 005°22'0 0.0
2015-Apr-18 14:26N 36°08' W 005°22'0 0.0
2015-Apr-18 13:32N 36°08' W 005°22'0 0.1
2015-Apr-18 12:32N 36°08' W 005°22'0 0.1
2015-Apr-18 11:17N 36°08' W 005°22'0 0.1
2015-Apr-18 09:17N 36°08' W 005°22'0 0.1
2015-Apr-18 08:26N 36°07' W 005°22'0 0.0
2015-Apr-18 01:08N 36°07' W 005°22'0 0.1
2015-Apr-17 23:32N 36°08' W 005°22'0 0.1
2015-Apr-17 22:32N 36°08' W 005°22'0 0.1
2015-Apr-17 21:29N 36°08' W 005°22'0 0.2
2015-Apr-17 20:26N 36°08' W 005°22'0 0.0
2015-Apr-17 19:26N 36°08' W 005°22'0 0.1
2015-Apr-17 18:20N 36°08' W 005°22'0 0.0
2015-Apr-17 16:29N 36°08' W 005°22'0 0.0
2015-Apr-17 15:26N 36°08' W 005°22'0 0.1
2015-Apr-17 14:32N 36°08' W 005°22'0 0.0
2015-Apr-17 12:08N 36°08' W 005°22'0 0.0
2015-Apr-17 11:20N 36°08' W 005°22'0 0.0
2015-Apr-17 10:29N 36°08' W 005°22'0 0.1
2015-Apr-17 09:08N 36°08' W 005°22'0 0.1
2015-Apr-17 08:32N 36°08' W 005°22'0 0.2
2015-Apr-17 07:32N 36°08' W 005°22'0 0.1
2015-Apr-17 06:17N 36°08' W 005°22'0 0.0
2015-Apr-17 04:17N 36°08' W 005°22'0 0.0
2015-Apr-17 03:26N 36°08' W 005°22'0 0.0
2015-Apr-17 01:26N 36°08' W 005°22'0 0.0
2015-Apr-17 00:20N 36°08' W 005°22'0 0.1
2015-Apr-16 21:32N 36°08' W 005°22'0 0.1
2015-Apr-16 20:32N 36°08' W 005°22'0 0.0
2015-Apr-16 19:32N 36°08' W 005°22'0 0.1
2015-Apr-16 16:29N 36°08' W 005°22'0 0.0
2015-Apr-16 15:29N 36°08' W 005°22'0 0.0
2015-Apr-16 12:08N 36°08' W 005°22'0 0.0
2015-Apr-16 11:32N 36°08' W 005°22'  
Track history (hours):
 
Tides and Currents Weather Stations Pressure Air Temp Water Temp Dewpoint Dewpoint Depression Visibility Wind Speed Wind Dir Waves Ship Positions

Hermann_schoening

Last reported at 2015-Apr-26 10:29 UTC. Time now 2015-Apr-26 11:30 UTC.
Position N 36°08' W 005°18'.

Length 190 m; draft 6.2 m.

Type: Cargo ship. MMSI: 636091839.

Date/timePositionNaut miles runAvg speedWind from/ knotsBaromVisibWave heightAir tempDewpointWater temp
2015-Apr-26 10:29N 36°08' W 005°18'0 0.0
2015-Apr-26 09:32N 36°08' W 005°18'0 0.0
2015-Apr-26 08:26N 36°08' W 005°18'0 0.0
2015-Apr-26 07:32N 36°08' W 005°18'0 0.0
2015-Apr-26 06:32N 36°08' W 005°18'0 0.0
2015-Apr-26 05:29N 36°08' W 005°18'0 0.1
2015-Apr-26 04:29N 36°08' W 005°18'0 0.2
2015-Apr-26 03:32N 36°08' W 005°18'0 0.1
2015-Apr-26 02:32N 36°08' W 005°18'0 0.0
2015-Apr-26 01:17N 36°08' W 005°18'0 0.1
2015-Apr-26 00:32N 36°08' W 005°18'0 0.1
2015-Apr-25 23:20N 36°08' W 005°18'0 0.0
2015-Apr-25 22:11N 36°08' W 005°18'0 0.0
2015-Apr-25 21:20N 36°08' W 005°18'0 0.0
2015-Apr-25 20:32N 36°08' W 005°18'0 0.0
2015-Apr-25 19:32N 36°08' W 005°18'0 0.0
2015-Apr-25 18:29N 36°08' W 005°18'0 0.0
2015-Apr-25 17:32N 36°08' W 005°18'0 0.0
2015-Apr-25 16:32N 36°08' W 005°18'0 0.0
2015-Apr-25 15:26N 36°08' W 005°18'0 0.1
2015-Apr-25 14:14N 36°08' W 005°18'0 0.0
2015-Apr-25 13:23N 36°08' W 005°18'0 0.1
2015-Apr-25 12:26N 36°08' W 005°18'0 0.0
2015-Apr-25 11:29N 36°08' W 005°18'0 0.1
2015-Apr-25 10:29N 36°08' W 005°18'0 0.1
2015-Apr-25 09:29N 36°08' W 005°18'0 0.0
2015-Apr-25 08:32N 36°08' W 005°18'0 0.0
2015-Apr-25 07:32N 36°08' W 005°18'0 0.0
2015-Apr-25 04:32N 36°08' W 005°18'0 0.0
2015-Apr-25 03:14N 36°08' W 005°18'0 0.0
2015-Apr-25 02:32N 36°08' W 005°18'0 0.0
2015-Apr-25 01:26N 36°08' W 005°18'0 0.0
2015-Apr-24 23:32N 36°08' W 005°18'0 0.1
2015-Apr-24 21:32N 36°08' W 005°18'0 0.0
2015-Apr-24 20:32N 36°08' W 005°18'0 0.0
2015-Apr-24 19:20N 36°08' W 005°18'0 0.0
2015-Apr-24 18:29N 36°08' W 005°18'0 0.0
2015-Apr-24 17:32N 36°08' W 005°18'0 0.0
2015-Apr-24 16:32N 36°08' W 005°18'0 0.1
2015-Apr-24 15:32N 36°08' W 005°18'0 0.0
2015-Apr-24 14:32N 36°08' W 005°18'0 0.1
2015-Apr-24 13:32N 36°08' W 005°18'0 0.2
2015-Apr-24 12:20N 36°08' W 005°18'0 0.0
2015-Apr-24 11:14N 36°08' W 005°18'0 0.0
2015-Apr-24 08:32N 36°08' W 005°18'0 0.0
2015-Apr-24 07:29N 36°08' W 005°18'0 0.0
2015-Apr-24 06:29N 36°08' W 005°18'0 0.0
2015-Apr-24 05:23N 36°08' W 005°18'0 0.1
2015-Apr-24 04:29N 36°08' W 005°18'0 0.1
2015-Apr-24 03:32N 36°08' W 005°18'0 0.1
2015-Apr-24 02:29N 36°08' W 005°18'0 0.0
2015-Apr-24 01:32N 36°08' W 005°18'0 0.0
2015-Apr-24 00:32N 36°08' W 005°18'0 0.0
2015-Apr-23 23:32N 36°08' W 005°18'0 0.1
2015-Apr-23 22:32N 36°08' W 005°18'0 0.1
2015-Apr-23 21:32N 36°08' W 005°18'0 0.0
2015-Apr-23 20:32N 36°08' W 005°18'0 0.0
2015-Apr-23 19:20N 36°08' W 005°18'0 0.1
2015-Apr-23 18:29N 36°08' W 005°18'0 0.1
2015-Apr-23 17:14N 36°08' W 005°18'0 0.1
2015-Apr-23 15:26N 36°08' W 005°18'0 0.0
2015-Apr-23 14:14N 36°08' W 005°18'0 0.0
2015-Apr-23 13:08N 36°08' W 005°18'0 0.1
2015-Apr-23 12:32N 36°08' W 005°18'0 0.0
2015-Apr-23 11:34N 36°08' W 005°18'4 3.4
2015-Apr-23 10:28N 36°07' W 005°23'1 0.2
2015-Apr-23 08:04N 36°07' W 005°22'2 3.6
2015-Apr-23 07:34N 36°05' W 005°21'3 2.5
2015-Apr-23 06:33N 36°06' W 005°18'2 1.7
2015-Apr-23 05:30N 36°08' W 005°18'0 0.0
2015-Apr-23 04:33N 36°08' W 005°18'0 0.0
2015-Apr-23 03:33N 36°08' W 005°18'0 0.1
2015-Apr-23 02:24N 36°08' W 005°18'0 0.0
2015-Apr-23 01:33N 36°08' W 005°18'0 0.0
2015-Apr-23 00:18N 36°08' W 005°18'0 0.0
2015-Apr-22 23:27N 36°08' W 005°18'0 0.0
2015-Apr-22 22:33N 36°08' W 005°18'0 0.1
2015-Apr-22 21:12N 36°08' W 005°18'0 0.2
2015-Apr-22 20:33N 36°08' W 005°18'0 0.0
2015-Apr-22 19:21N 36°08' W 005°18'0 0.0
2015-Apr-22 18:33N 36°08' W 005°18'0 0.0
2015-Apr-22 17:33N 36°08' W 005°18'0 0.0
2015-Apr-22 16:33N 36°08' W 005°18'0 0.2
2015-Apr-22 15:15N 36°08' W 005°18'0 0.0
2015-Apr-22 13:24N 36°08' W 005°18'0 0.0
2015-Apr-22 12:27N 36°08' W 005°18'0 0.0
2015-Apr-22 11:30N 36°08' W 005°18'0 0.0
2015-Apr-22 10:33N 36°08' W 005°18'0 0.0
2015-Apr-22 09:33N 36°08' W 005°18'0 0.0
2015-Apr-22 08:33N 36°08' W 005°18'0 0.0
2015-Apr-22 07:33N 36°08' W 005°18'0 0.0
2015-Apr-22 06:21N 36°08' W 005°18'0 0.0
2015-Apr-22 05:27N 36°08' W 005°18'0 0.0
2015-Apr-22 04:33N 36°08' W 005°18'0 0.0
2015-Apr-22 03:33N 36°08' W 005°18'0 0.0
2015-Apr-22 01:21N 36°08' W 005°18'0 0.0
2015-Apr-22 00:30N 36°08' W 005°18'0 0.0
2015-Apr-21 23:33N 36°08' W 005°18'0 0.0
2015-Apr-21 22:33N 36°08' W 005°18'0 0.0
2015-Apr-21 21:27N 36°08' W 005°18'0 0.0
2015-Apr-21 20:30N 36°08' W 005°18'0 0.0
2015-Apr-21 19:33N 36°08' W 005°18'0 0.0
2015-Apr-21 18:27N 36°08' W 005°18'0 0.0
2015-Apr-21 17:24N 36°08' W 005°18'0 0.0
2015-Apr-21 16:18N 36°08' W 005°18'0 0.0
2015-Apr-21 15:18N 36°08' W 005°18'0 0.0
2015-Apr-21 14:27N 36°08' W 005°18'0 0.0
2015-Apr-21 13:21N 36°08' W 005°18'0 0.1
2015-Apr-21 12:33N 36°08' W 005°18'4 4.3
2015-Apr-21 11:33N 36°05' W 005°22'2 2.1
2015-Apr-21 10:32N 36°08' W 005°22'0 0.1
2015-Apr-21 09:20N 36°08' W 005°22'0 0.0
2015-Apr-21 08:32N 36°08' W 005°22'2 1.9
2015-Apr-21 07:33N 36°06' W 005°22'4 4.1
2015-Apr-21 06:33N 36°08' W 005°17'1 0.8
2015-Apr-21 05:31N 36°08' W 005°18'0 0.1
2015-Apr-21 04:28N 36°08' W 005°18'0 0.0
2015-Apr-21 03:31N 36°08' W 005°18'0 0.0
2015-Apr-21 02:28N 36°08' W 005°18'0 0.0
2015-Apr-21 01:31N 36°08' W 005°18'0 0.0
2015-Apr-21 00:25N 36°08' W 005°18'0 0.0
2015-Apr-20 23:31N 36°08' W 005°18'0 0.0
2015-Apr-20 22:22N 36°08' W 005°18'0 0.0
2015-Apr-20 21:10N 36°08' W 005°18'0 0.0
2015-Apr-20 20:22N 36°08' W 005°18'0 0.0
2015-Apr-20 19:22N 36°08' W 005°18'0 0.0
2015-Apr-20 18:28N 36°08' W 005°18'0 0.1
2015-Apr-20 17:31N 36°08' W 005°18'0 0.0
2015-Apr-20 16:31N 36°08' W 005°18'0 0.0
2015-Apr-20 15:22N 36°08' W 005°18'0 0.0
2015-Apr-20 14:22N 36°08' W 005°18'0 0.1
2015-Apr-20 13:31N 36°08' W 005°18'0 0.0
2015-Apr-20 12:28N 36°08' W 005°18'0 0.1
2015-Apr-20 11:22N 36°08' W 005°18'0 0.0
2015-Apr-20 10:22N 36°08' W 005°18'0 0.0
2015-Apr-20 08:28N 36°08' W 005°18'0 0.0
2015-Apr-20 07:28N 36°08' W 005°18'0 0.2
2015-Apr-20 06:10N 36°08' W 005°18'0 0.2
2015-Apr-20 05:28N 36°08' W 005°18'0 0.1
2015-Apr-20 04:25N 36°08' W 005°18'0 0.1
2015-Apr-20 03:31N 36°08' W 005°18'0 0.0
2015-Apr-20 02:28N 36°08' W 005°18'0 0.0
2015-Apr-19 23:22N 36°08' W 005°18'0 0.1
2015-Apr-19 22:31N 36°08' W 005°18'0 0.2
2015-Apr-19 21:28N 36°08' W 005°18'3 3.5
2015-Apr-19 20:33N 36°08' W 005°22'0 0.1
2015-Apr-19 17:26N 36°08' W 005°22'0 0.1
2015-Apr-19 16:29N 36°08' W 005°22'0 0.1
2015-Apr-19 15:23N 36°08' W 005°22'0 0.0
2015-Apr-19 14:32N 36°08' W 005°22'0 0.1
2015-Apr-19 13:32N 36°08' W 005°22'0 0.0
2015-Apr-19 12:32N 36°08' W 005°22'0 0.2
2015-Apr-19 11:32N 36°08' W 005°22'0 0.2
2015-Apr-19 10:32N 36°08' W 005°22'0 0.0
2015-Apr-19 06:08N 36°08' W 005°22'0 0.0
2015-Apr-19 05:32N 36°08' W 005°22'0 0.0
2015-Apr-19 04:26N 36°08' W 005°22'0 0.0
2015-Apr-19 01:20N 36°08' W 005°22'0 0.1
2015-Apr-19 00:26N 36°08' W 005°22'0 0.1
2015-Apr-18 23:32N 36°08' W 005°22'0 0.1
2015-Apr-18 21:29N 36°07' W 005°22'0 0.0
2015-Apr-18 18:32N 36°08' W 005°22'0 0.0
2015-Apr-18 16:20N 36°08' W 005°22'0 0.1
2015-Apr-18 15:23N 36°08' W 005°22'0 0.0
2015-Apr-18 14:26N 36°08' W 005°22'0 0.0
2015-Apr-18 13:32N 36°08' W 005°22'0 0.1
2015-Apr-18 12:32N 36°08' W 005°22'0 0.1
2015-Apr-18 11:17N 36°08' W 005°22'0 0.1
2015-Apr-18 09:17N 36°08' W 005°22'0 0.1
2015-Apr-18 08:26N 36°07' W 005°22'0 0.0
2015-Apr-18 01:08N 36°07' W 005°22'0 0.1
2015-Apr-17 23:32N 36°08' W 005°22'0 0.1
2015-Apr-17 22:32N 36°08' W 005°22'0 0.1
2015-Apr-17 21:29N 36°08' W 005°22'0 0.2
2015-Apr-17 20:26N 36°08' W 005°22'0 0.0
2015-Apr-17 19:26N 36°08' W 005°22'0 0.1
2015-Apr-17 18:20N 36°08' W 005°22'0 0.0
2015-Apr-17 16:29N 36°08' W 005°22'0 0.0
2015-Apr-17 15:26N 36°08' W 005°22'0 0.1
2015-Apr-17 14:32N 36°08' W 005°22'0 0.0
2015-Apr-17 12:08N 36°08' W 005°22'0 0.0
2015-Apr-17 11:20N 36°08' W 005°22'0 0.0
2015-Apr-17 10:29N 36°08' W 005°22'0 0.1
2015-Apr-17 09:08N 36°08' W 005°22'0 0.1
2015-Apr-17 08:32N 36°08' W 005°22'0 0.2
2015-Apr-17 07:32N 36°08' W 005°22'0 0.1
2015-Apr-17 06:17N 36°08' W 005°22'0 0.0
2015-Apr-17 04:17N 36°08' W 005°22'0 0.0
2015-Apr-17 03:26N 36°08' W 005°22'0 0.0
2015-Apr-17 01:26N 36°08' W 005°22'0 0.0
2015-Apr-17 00:20N 36°08' W 005°22'0 0.1
2015-Apr-16 21:32N 36°08' W 005°22'0 0.1
2015-Apr-16 20:32N 36°08' W 005°22'0 0.0
2015-Apr-16 19:32N 36°08' W 005°22'0 0.1
2015-Apr-16 16:29N 36°08' W 005°22'0 0.0
2015-Apr-16 15:29N 36°08' W 005°22'0 0.0
2015-Apr-16 12:08N 36°08' W 005°22'0 0.0
2015-Apr-16 11:32N 36°08' W 005°22'  

Dump ship's entire track history